EGJJ Airport Information

Runway Information
Runway 09 Length 5597 ft width 151 ft
Elevation 270 ft Threshold 200 ft Heading 83
Runway 27 Length 5597 ft Width 151 ft
Elevation 271 ft Threshold 299 ft Heading 263
Airport Frequencies
Type APP Name APP Frequency 120.3 MHZ
Type ATIS Name INFO Frequency 112.2 MHZ
Type GND Name GND Frequency 121.9 MHZ
Type RDR Name RDR Frequency 118.55 MHZ
Type TWR Name TWR Frequency 119.45 MHZ
Airport Navaids
Type VOR-DME Name Jersey Frequency 112200 KHZ
Airport Weather Information & NOTAM
ADDS - METARS form results

(1519 UTC 14 October 2019)
Data provider http://aviationweather.gov/metar/data/
 
METAR text: EGJJ 141450Z 26009KT 9999 -RA SCT002 BKN005 15/14 Q1001
Conditions at: EGJJ (JERSEY AIRPORT , GB) observed 1450 UTC 14 October 2019
Temperature: 15.0°C (59°F)
Dewpoint: 14.0°C (57°F) [RH = 94%]
Pressure (altimeter): 29.56 inches Hg (1001.0 mb)
Winds: from the W (260 degrees) at 10 MPH (9 knots; 4.6 m/s)
Visibility: 6 or more miles (10+ km)
Ceiling: 500 feet AGL
Clouds: scattered clouds at 200 feet AGL
broken clouds at 500 feet AGL
Weather: -RA  (light rain)

METAR text: EGJJ 141420Z 26009KT 9999 -RA FEW001 BKN004 15/14 Q1001
Conditions at: EGJJ (JERSEY AIRPORT , GB) observed 1420 UTC 14 October 2019
Temperature: 15.0°C (59°F)
Dewpoint: 14.0°C (57°F) [RH = 94%]
Pressure (altimeter): 29.56 inches Hg (1001.0 mb)
Winds: from the W (260 degrees) at 10 MPH (9 knots; 4.6 m/s)
Visibility: 6 or more miles (10+ km)
Ceiling: 400 feet AGL
Clouds: few clouds at 100 feet AGL
broken clouds at 400 feet AGL
Weather: -RA  (light rain)

Forecast for: EGJJ (JERSEY AIRPORT , GB)
Text: TAF EGJJ 141404Z 1415/1500 24009KT 9000 RA FEW001 SCT004 BKN010
Forecast period: 1500 UTC 14 October 2019 to 0000 UTC 15 October 2019
Forecast type: FROM: standard forecast or significant change
Winds: from the WSW (240 degrees) at 10 MPH (9 knots; 4.6 m/s)
Visibility: 6 miles (9 km)
Ceiling: 1000 feet AGL
Clouds: few clouds at 100 feet AGL
scattered clouds at 400 feet AGL
broken clouds at 1000 feet AGL
Weather: RA  (moderate rain)
Text: BECMG 1415/1418 9999 NSW SCT012 BKN020
Forecast period: 1500 UTC 14 October 2019 to 0000 UTC 15 October 2019
Forecast type: BECOMING: Conditions expected to become as follows by 1800 UTC 14 October 2019
Winds: from the WSW (240 degrees) at 10 MPH (9 knots; 4.6 m/s)
Visibility: 6 or more miles 10+ km)
Ceiling: 2000 feet AGL
Clouds: scattered clouds at 1200 feet AGL
broken clouds at 2000 feet AGL
Weather: NSW  (no significant weather)
Text: PROB40
Forecast period: 1800 UTC 14 October 2019 to 0000 UTC 15 October 2019
Forecast type: TEMPORARY: The following changes expected for less than half the time period
Visibility: 2.49 miles (4.01 km)
Ceiling: 700 feet AGL
Clouds: broken clouds at 700 feet AGL
Weather: SHRA  (rain showers)